CheckWX is a tool to help pilots better visualize weather data.  It is not intended as a substitute for an official pre-flight weather briefing.

20:34:09 UTC

CYZT TAF
Port Hardy Airport
Port Hardy, Canada
TAF CYZT 221838Z 2219/2307 12010KT P6SM SCT080 BKN200 BECMG 2219/2221 11015G25KT FM230000 11015G25KT P6SM BKN040 TEMPO 2300/2302 P6SM -SHRA FM230200 15005KT P6SM -RA SCT020 OVC030 RMK NXT FCST BY 230100Z

Mar-22@
19:00 UTC

Mar-22 @ 19:00 UTC

Mar-23@
07:00 UTC

Mar-23 @ 07:00 UTC

TAF CYZT 221838Z 2219/2307 12010KT P6SM SCT080 BKN200
Wind
  • 120° at 10 KTS
Cloud Levels
  • Scattered at 8,000' AGL
  • Broken at 20,000' AGL

Mar-22@
19:00 UTC

Mar-22 @ 19:00 UTC

Mar-23@
00:00 UTC

Mar-23 @ 00:00 UTC

BECMG 2219/2221 11015G25KT

Becoming

Becoming Conditions expected by Fri, Mar 22, 2019 @ 21:00 UTC

Wind
  • 110° at 15 KTS
  • {Gusting to 25 KTS
Cloud Levels
  • Scattered at 8,000' AGL
  • Broken at 20,000' AGL

Mar-23@
00:00 UTC

Mar-23 @ 00:00 UTC

Mar-23@
02:00 UTC

Mar-23 @ 02:00 UTC

FM230000 11015G25KT P6SM BKN040

From

From Standard forecast or significant change

Wind
  • 110° at 15 KTS
  • {Gusting to 25 KTS
Cloud Levels
  • Broken at 4,000' AGL

Mar-23@
00:00 UTC

Mar-23 @ 00:00 UTC

Mar-23@
02:00 UTC

Mar-23 @ 02:00 UTC

TEMPO 2300/2302 P6SM -SHRA

Temporary

Temporary Changes expected for less than half the time period

Conditions
Light Rain

Mar-23@
02:00 UTC

Mar-23 @ 02:00 UTC

Mar-23@
07:00 UTC

Mar-23 @ 07:00 UTC

FM230200 15005KT P6SM -RA SCT020 OVC030 RMK NXT FCST BY 230100Z

From

From Standard forecast or significant change

Wind
  • 150° at 5 KTS
Conditions
Light Rain
Cloud Levels
  • Scattered at 2,000' AGL
  • Overcast at 3,000' AGL